createdAt,value
2023-08-15T00:01:06.751Z,23.98
2023-08-15T00:03:34.099Z,23.97
2023-08-15T00:06:00.835Z,23.97
2023-08-15T00:08:27.328Z,23.92
2023-08-15T00:10:53.794Z,23.93
2023-08-15T00:13:20.234Z,23.97
2023-08-15T00:15:46.673Z,24.00
2023-08-15T00:18:13.141Z,23.94
2023-08-15T00:20:39.617Z,23.95
2023-08-15T00:23:06.067Z,24.00
2023-08-15T00:25:32.519Z,23.97
2023-08-15T00:27:58.954Z,23.94
2023-08-15T00:30:25.388Z,23.95
2023-08-15T00:32:51.901Z,23.97
2023-08-15T00:35:18.534Z,23.97
2023-08-15T00:37:45.092Z,24.00
2023-08-15T00:40:11.947Z,24.00
2023-08-15T00:42:38.423Z,23.96
2023-08-15T00:45:05.291Z,23.91
2023-08-15T00:47:31.968Z,23.82
2023-08-15T00:49:59.180Z,23.66
2023-08-15T00:52:25.994Z,23.52
2023-08-15T00:54:52.888Z,23.39
2023-08-15T00:57:20.470Z,23.29
2023-08-15T00:59:47.734Z,23.23
2023-08-15T01:02:14.725Z,23.21
2023-08-15T01:04:42.084Z,23.21
2023-08-15T01:07:10.587Z,23.24
2023-08-15T01:09:37.983Z,23.27
2023-08-15T01:12:25.388Z,23.31
2023-08-15T01:15:05.803Z,23.34
2023-08-15T01:17:45.390Z,23.38
2023-08-15T01:20:16.682Z,23.41
2023-08-15T01:22:48.037Z,23.44
2023-08-15T01:25:14.532Z,23.45
2023-08-15T01:27:41.157Z,23.41
2023-08-15T01:30:08.125Z,23.40
2023-08-15T01:32:47.612Z,23.34
2023-08-15T01:35:33.988Z,23.26
2023-08-15T01:38:27.879Z,23.26
2023-08-15T01:40:56.509Z,23.25
2023-08-15T01:43:24.112Z,23.28
2023-08-15T01:45:51.717Z,23.28
2023-08-15T01:48:18.188Z,23.24
2023-08-15T01:50:44.633Z,23.19
2023-08-15T01:53:11.139Z,23.15
2023-08-15T01:55:37.615Z,23.11
2023-08-15T01:58:04.056Z,23.07
2023-08-15T02:00:30.549Z,23.05
2023-08-15T02:02:57.032Z,23.07
2023-08-15T02:05:23.573Z,23.10
2023-08-15T02:07:51.053Z,23.09
2023-08-15T02:10:17.533Z,23.11
2023-08-15T02:12:48.183Z,23.12
2023-08-15T02:15:15.134Z,23.09
2023-08-15T02:17:41.630Z,23.07
2023-08-15T02:20:08.424Z,23.07
2023-08-15T02:22:34.893Z,23.08
2023-08-15T02:25:01.337Z,23.05
2023-08-15T02:27:27.803Z,23.02
2023-08-15T02:29:54.272Z,23.02
2023-08-15T02:32:20.740Z,23.00
2023-08-15T02:34:47.203Z,23.01
2023-08-15T02:37:13.644Z,23.01
2023-08-15T02:39:40.092Z,23.00
2023-08-15T02:42:06.546Z,23.01
2023-08-15T02:44:34.064Z,23.01
2023-08-15T02:47:00.568Z,22.99
2023-08-15T02:49:27.099Z,22.99
2023-08-15T02:51:53.556Z,22.96
2023-08-15T02:54:20.179Z,22.95
2023-08-15T02:56:46.644Z,22.93
2023-08-15T02:59:13.091Z,22.90
2023-08-15T03:01:39.533Z,22.87
2023-08-15T03:04:08.244Z,22.86
2023-08-15T03:06:34.736Z,22.82
2023-08-15T03:09:01.221Z,22.81
2023-08-15T03:11:30.732Z,22.80
2023-08-15T03:13:59.276Z,22.80
2023-08-15T03:16:27.918Z,22.78
2023-08-15T03:18:54.489Z,22.71
2023-08-15T03:21:21.161Z,22.66
2023-08-15T03:23:47.679Z,22.62
2023-08-15T03:26:14.876Z,22.61
2023-08-15T03:28:41.413Z,22.57
2023-08-15T03:31:09.953Z,22.52
2023-08-15T03:33:41.838Z,22.52
2023-08-15T03:36:08.333Z,22.51
2023-08-15T03:38:36.279Z,22.51
2023-08-15T03:41:04.644Z,22.52
2023-08-15T03:43:35.691Z,22.50
2023-08-15T03:46:04.054Z,22.49
2023-08-15T03:48:33.592Z,22.50
2023-08-15T03:51:01.512Z,22.46
2023-08-15T03:53:28.246Z,22.40
2023-08-15T03:55:55.610Z,22.35
2023-08-15T03:58:23.707Z,22.29
2023-08-15T04:00:50.828Z,22.24
2023-08-15T04:03:17.640Z,22.23
2023-08-15T04:05:48.750Z,22.23
2023-08-15T04:08:16.844Z,22.23
2023-08-15T04:10:47.505Z,22.24
2023-08-15T04:13:14.687Z,22.23
2023-08-15T04:15:44.349Z,22.20
2023-08-15T04:18:11.881Z,22.18
2023-08-15T04:20:39.910Z,22.14
2023-08-15T04:23:07.815Z,22.15
2023-08-15T04:25:35.876Z,22.17
2023-08-15T04:28:03.181Z,22.15
2023-08-15T04:30:30.946Z,22.12
2023-08-15T04:32:59.735Z,22.13
2023-08-15T04:35:27.538Z,22.16
2023-08-15T04:37:54.440Z,22.16
2023-08-15T04:40:31.083Z,22.13
2023-08-15T04:42:57.710Z,22.07
2023-08-15T04:45:24.317Z,22.00
2023-08-15T04:47:51.408Z,21.98
2023-08-15T04:50:19.038Z,21.92
2023-08-15T04:52:45.505Z,21.86
2023-08-15T04:55:14.178Z,21.85
2023-08-15T04:57:41.342Z,21.83
2023-08-15T05:00:12.199Z,21.82
2023-08-15T05:02:40.055Z,21.79
2023-08-15T05:05:07.577Z,21.82
2023-08-15T05:07:34.699Z,21.83
2023-08-15T05:10:01.230Z,21.87
2023-08-15T05:12:27.970Z,21.92
2023-08-15T05:14:54.624Z,22.01
2023-08-15T05:17:21.450Z,22.05
2023-08-15T05:19:48.178Z,22.13
2023-08-15T05:22:14.847Z,22.17
2023-08-15T05:24:42.369Z,22.22
2023-08-15T05:27:12.580Z,22.28
2023-08-15T05:29:41.462Z,22.34
2023-08-15T05:32:08.150Z,22.38
2023-08-15T05:34:34.613Z,22.44
2023-08-15T05:37:01.052Z,22.49
2023-08-15T05:39:27.528Z,22.55
2023-08-15T05:41:53.962Z,22.59
2023-08-15T05:44:20.418Z,22.61
2023-08-15T05:46:46.913Z,22.67
2023-08-15T05:49:13.440Z,22.73
2023-08-15T05:51:40.269Z,22.75
2023-08-15T05:54:06.757Z,22.78
2023-08-15T05:56:33.233Z,22.83
2023-08-15T05:58:59.686Z,22.86
2023-08-15T06:01:26.192Z,22.94
2023-08-15T06:03:53.467Z,23.01
2023-08-15T06:06:22.038Z,23.10
2023-08-15T06:08:49.208Z,23.19
2023-08-15T06:11:16.415Z,23.25
2023-08-15T06:13:42.905Z,23.30
2023-08-15T06:16:10.867Z,23.36
2023-08-15T06:18:39.346Z,23.47
2023-08-15T06:21:05.812Z,23.55
2023-08-15T06:23:32.327Z,23.63
2023-08-15T06:25:58.828Z,23.70
2023-08-15T06:28:25.325Z,23.76
2023-08-15T06:30:51.831Z,23.77
2023-08-15T06:33:18.378Z,23.83
2023-08-15T06:35:44.834Z,23.87
2023-08-15T06:38:11.425Z,23.98
2023-08-15T06:40:37.885Z,24.06
2023-08-15T06:43:04.484Z,24.13
2023-08-15T06:45:30.998Z,24.23
2023-08-15T06:47:57.577Z,24.32
2023-08-15T06:50:24.065Z,24.43
2023-08-15T06:52:50.517Z,24.53
2023-08-15T06:55:17.130Z,24.58
2023-08-15T06:57:43.746Z,24.68
2023-08-15T07:00:13.326Z,24.71
2023-08-15T07:02:41.270Z,24.78
2023-08-15T07:05:11.763Z,24.87
2023-08-15T07:07:38.529Z,24.92
2023-08-15T07:10:08.489Z,24.98
2023-08-15T07:12:35.112Z,25.06
2023-08-15T07:15:02.167Z,25.12
2023-08-15T07:17:28.730Z,25.20
2023-08-15T07:19:55.315Z,25.25
2023-08-15T07:22:22.035Z,25.36
2023-08-15T07:24:48.763Z,25.42
2023-08-15T07:27:15.215Z,25.41
2023-08-15T07:29:41.661Z,25.42
2023-08-15T07:32:12.181Z,25.47
2023-08-15T07:34:39.905Z,25.57
2023-08-15T07:37:06.374Z,25.66
2023-08-15T07:39:33.338Z,25.76
2023-08-15T07:41:59.789Z,25.89
2023-08-15T07:44:26.757Z,25.99
2023-08-15T07:46:53.738Z,26.02
2023-08-15T07:49:20.182Z,26.04
2023-08-15T07:51:46.626Z,26.11
2023-08-15T07:54:14.392Z,26.10
2023-08-15T07:56:40.849Z,26.05
2023-08-15T07:59:07.343Z,26.09
2023-08-15T08:01:33.898Z,26.12
2023-08-15T08:04:01.841Z,26.19
2023-08-15T08:06:39.831Z,26.23
2023-08-15T08:09:07.565Z,26.21
2023-08-15T08:11:34.142Z,26.20
2023-08-15T08:14:00.701Z,26.21
2023-08-15T08:16:27.209Z,26.27
2023-08-15T08:18:53.752Z,26.19
2023-08-15T08:21:20.184Z,26.18
2023-08-15T08:23:46.622Z,26.05
2023-08-15T08:26:13.295Z,26.00
2023-08-15T08:28:39.940Z,25.95
2023-08-15T08:31:06.460Z,26.02
2023-08-15T08:33:33.503Z,25.97
2023-08-15T08:35:59.946Z,26.05
2023-08-15T08:38:28.640Z,26.12
2023-08-15T08:40:56.652Z,26.22
2023-08-15T08:43:23.647Z,26.25
2023-08-15T08:45:52.410Z,26.39
2023-08-15T08:48:20.451Z,26.41
2023-08-15T08:50:46.908Z,26.51
2023-08-15T08:53:13.350Z,26.57
2023-08-15T08:55:40.511Z,26.63
2023-08-15T08:58:11.235Z,26.69
2023-08-15T09:00:38.216Z,26.83
2023-08-15T09:03:04.894Z,26.86
2023-08-15T09:05:31.530Z,26.87
2023-08-15T09:07:58.959Z,26.85
2023-08-15T09:10:25.684Z,26.93
2023-08-15T09:12:57.985Z,26.96
2023-08-15T09:15:24.909Z,26.93
2023-08-15T09:17:58.632Z,27.00
2023-08-15T09:20:25.110Z,27.00
2023-08-15T09:22:52.540Z,26.99
2023-08-15T09:25:19.160Z,27.18
2023-08-15T09:27:45.934Z,27.35
2023-08-15T09:30:17.811Z,27.35
2023-08-15T09:32:46.006Z,27.57
2023-08-15T09:35:14.156Z,27.61
2023-08-15T09:37:50.905Z,27.80
2023-08-15T09:40:25.005Z,27.77
2023-08-15T09:42:54.637Z,27.61
2023-08-15T09:45:21.326Z,27.51
2023-08-15T09:47:47.887Z,27.46
2023-08-15T09:50:16.676Z,27.45
2023-08-15T09:52:50.732Z,27.46
2023-08-15T09:55:18.784Z,27.51
2023-08-15T09:57:46.393Z,27.51
2023-08-15T10:00:14.195Z,27.50
2023-08-15T10:02:48.577Z,27.51
2023-08-15T10:05:20.054Z,27.56
2023-08-15T10:07:47.059Z,27.54
2023-08-15T10:10:15.112Z,27.53
2023-08-15T10:12:42.520Z,27.52
2023-08-15T10:15:11.191Z,27.50
2023-08-15T10:17:38.797Z,27.46
2023-08-15T10:20:13.392Z,27.41
2023-08-15T10:22:43.210Z,27.42
2023-08-15T10:25:24.868Z,27.38
2023-08-15T10:27:53.476Z,27.37
2023-08-15T10:30:42.453Z,27.35
2023-08-15T10:33:25.177Z,27.33
2023-08-15T10:35:57.822Z,27.34
2023-08-15T10:38:29.391Z,27.36
2023-08-15T10:41:03.312Z,27.39
2023-08-15T10:43:29.805Z,27.45
2023-08-15T10:46:00.384Z,27.53
2023-08-15T10:49:01.628Z,27.65
2023-08-15T10:51:34.126Z,27.75
2023-08-15T10:54:02.448Z,27.87
2023-08-15T10:56:31.210Z,27.93
2023-08-15T10:58:59.144Z,27.98
2023-08-15T11:01:28.116Z,28.06
2023-08-15T11:03:58.022Z,28.15
2023-08-15T11:06:25.186Z,28.26
2023-08-15T11:08:53.429Z,28.35
2023-08-15T11:11:20.095Z,28.53
2023-08-15T11:13:48.741Z,28.75
2023-08-15T11:16:17.136Z,28.82
2023-08-15T11:18:44.411Z,28.84
2023-08-15T11:21:16.188Z,28.90
2023-08-15T11:23:43.750Z,28.94
2023-08-15T11:26:12.946Z,29.03
2023-08-15T11:28:39.700Z,29.10
2023-08-15T11:31:21.260Z,29.14
2023-08-15T11:33:52.764Z,29.23
2023-08-15T11:36:19.493Z,29.43
2023-08-15T11:38:45.985Z,29.48
2023-08-15T11:41:12.542Z,29.49
2023-08-15T11:43:39.143Z,29.61
2023-08-15T11:46:06.440Z,29.69
2023-08-15T11:48:33.666Z,29.91
2023-08-15T11:51:01.335Z,29.90
2023-08-15T11:53:28.401Z,29.84
2023-08-15T11:55:55.158Z,29.79
2023-08-15T11:58:29.324Z,29.71
2023-08-15T12:01:06.488Z,29.70
2023-08-15T12:03:34.540Z,29.79
2023-08-15T12:06:09.955Z,30.03
2023-08-15T12:08:36.611Z,30.32
2023-08-15T12:11:09.182Z,30.34
2023-08-15T12:13:40.023Z,30.36
2023-08-15T12:16:08.435Z,30.35
2023-08-15T12:18:35.352Z,30.50
2023-08-15T12:21:03.819Z,30.70
2023-08-15T12:23:30.288Z,30.85
2023-08-15T12:25:56.970Z,30.97
2023-08-15T12:28:23.575Z,30.86
2023-08-15T12:30:50.170Z,31.00
2023-08-15T12:33:27.551Z,31.10
2023-08-15T12:36:03.584Z,31.17
2023-08-15T12:38:30.292Z,31.17
2023-08-15T12:40:56.986Z,31.22
2023-08-15T12:43:23.423Z,31.33
2023-08-15T12:45:49.906Z,31.41
2023-08-15T12:48:16.838Z,31.57
2023-08-15T12:50:43.348Z,31.60
2023-08-15T12:53:10.219Z,31.59
2023-08-15T12:55:36.921Z,31.44
2023-08-15T12:58:04.133Z,31.28
2023-08-15T13:00:30.867Z,31.32
2023-08-15T13:02:58.661Z,31.55
2023-08-15T13:05:25.296Z,31.71
2023-08-15T13:07:51.761Z,31.61
2023-08-15T13:10:18.232Z,31.63
2023-08-15T13:12:44.689Z,31.62
2023-08-15T13:15:12.450Z,31.64
2023-08-15T13:17:39.047Z,31.68
2023-08-15T13:20:06.243Z,31.91
2023-08-15T13:22:32.665Z,31.94
2023-08-15T13:24:59.141Z,31.86
2023-08-15T13:27:25.577Z,31.83
2023-08-15T13:29:52.167Z,31.89
2023-08-15T13:32:18.645Z,32.05
2023-08-15T13:34:45.129Z,32.03
2023-08-15T13:37:11.579Z,31.99
2023-08-15T13:39:38.044Z,31.87
2023-08-15T13:42:04.685Z,31.84
2023-08-15T13:44:31.180Z,31.88
2023-08-15T13:46:57.681Z,31.89
2023-08-15T13:49:24.152Z,32.08
2023-08-15T13:51:50.582Z,32.04
2023-08-15T13:54:17.049Z,32.19
2023-08-15T13:56:43.630Z,32.26
2023-08-15T13:59:10.099Z,32.24
2023-08-15T14:01:36.593Z,32.21
2023-08-15T14:04:03.326Z,32.23
2023-08-15T14:06:30.120Z,32.22
2023-08-15T14:08:56.671Z,32.14
2023-08-15T14:11:23.390Z,32.14
2023-08-15T14:13:49.887Z,32.11
2023-08-15T14:16:16.407Z,32.15
2023-08-15T14:18:42.974Z,32.12
2023-08-15T14:21:11.921Z,32.18
2023-08-15T14:23:45.005Z,32.27
2023-08-15T14:26:11.833Z,32.30
2023-08-15T14:28:38.295Z,32.33
2023-08-15T14:31:05.655Z,32.39
2023-08-15T14:33:32.677Z,32.39
2023-08-15T14:35:59.434Z,32.32
2023-08-15T14:38:27.073Z,32.25
2023-08-15T14:40:53.694Z,32.19
2023-08-15T14:43:20.222Z,32.24
2023-08-15T14:45:46.681Z,32.26
2023-08-15T14:48:13.208Z,32.29
2023-08-15T14:50:41.109Z,32.21
2023-08-15T14:53:07.941Z,32.22
2023-08-15T14:55:34.484Z,32.26
2023-08-15T14:58:01.121Z,32.30
2023-08-15T15:00:27.695Z,32.25
2023-08-15T15:02:54.273Z,32.17
2023-08-15T15:05:20.844Z,32.16
2023-08-15T15:07:47.566Z,32.11
2023-08-15T15:10:14.056Z,32.13
2023-08-15T15:12:40.717Z,32.03
2023-08-15T15:15:09.697Z,32.00
2023-08-15T15:17:36.253Z,32.03
2023-08-15T15:20:04.406Z,31.99
2023-08-15T15:22:30.978Z,31.95
2023-08-15T15:24:57.453Z,32.03
2023-08-15T15:27:24.140Z,31.96
2023-08-15T15:29:50.910Z,31.90
2023-08-15T15:32:17.488Z,31.85
2023-08-15T15:34:44.056Z,31.84
2023-08-15T15:37:10.483Z,31.77
2023-08-15T15:39:36.966Z,31.68
2023-08-15T15:42:03.562Z,31.62
2023-08-15T15:44:30.927Z,31.58
2023-08-15T15:46:57.539Z,31.54
2023-08-15T15:49:25.110Z,31.46
2023-08-15T15:51:51.588Z,31.42
2023-08-15T15:54:18.023Z,31.36
2023-08-15T15:56:44.502Z,31.39
2023-08-15T15:59:11.392Z,31.31
2023-08-15T16:01:38.073Z,31.29
2023-08-15T16:04:04.928Z,31.20
2023-08-15T16:06:31.889Z,31.14
2023-08-15T16:08:58.585Z,31.06
2023-08-15T16:11:25.058Z,31.01
2023-08-15T16:13:52.376Z,30.97
2023-08-15T16:16:18.948Z,30.92
2023-08-15T16:18:45.450Z,30.86
2023-08-15T16:21:11.987Z,30.83
2023-08-15T16:23:38.461Z,30.80
2023-08-15T16:26:04.976Z,30.75
2023-08-15T16:28:31.520Z,30.72
2023-08-15T16:30:58.042Z,30.69
2023-08-15T16:33:24.544Z,30.67
2023-08-15T16:35:51.000Z,30.64
2023-08-15T16:38:17.447Z,30.61
2023-08-15T16:40:43.923Z,30.58
2023-08-15T16:43:12.386Z,30.56
2023-08-15T16:45:39.817Z,30.53
2023-08-15T16:48:07.034Z,30.50
2023-08-15T16:50:33.497Z,30.47
2023-08-15T16:53:03.697Z,30.41
2023-08-15T16:55:30.753Z,30.36
2023-08-15T16:57:58.646Z,30.32
2023-08-15T17:00:26.460Z,30.28
2023-08-15T17:02:53.879Z,30.23
2023-08-15T17:05:20.830Z,30.17
2023-08-15T17:07:47.392Z,30.13
2023-08-15T17:10:13.921Z,30.10
2023-08-15T17:12:40.383Z,30.08
2023-08-15T17:15:08.016Z,30.04
2023-08-15T17:17:34.645Z,30.01
2023-08-15T17:20:01.215Z,29.99
2023-08-15T17:22:30.719Z,29.97
2023-08-15T17:24:57.284Z,29.94
2023-08-15T17:27:23.781Z,29.92
2023-08-15T17:29:50.270Z,29.90
2023-08-15T17:32:16.761Z,29.87
2023-08-15T17:34:43.195Z,29.84
2023-08-15T17:37:09.638Z,29.80
2023-08-15T17:39:36.109Z,29.78
2023-08-15T17:42:02.591Z,29.74
2023-08-15T17:44:29.046Z,29.70
2023-08-15T17:46:55.592Z,29.66
2023-08-15T17:49:22.779Z,29.64
2023-08-15T17:51:49.630Z,29.61
2023-08-15T17:54:16.065Z,29.53
2023-08-15T17:56:42.530Z,29.47
2023-08-15T17:59:09.231Z,29.44
2023-08-15T18:01:37.779Z,29.38
2023-08-15T18:04:07.500Z,29.33
2023-08-15T18:06:35.535Z,29.30
2023-08-15T18:09:03.501Z,29.27
2023-08-15T18:11:29.964Z,29.22
2023-08-15T18:13:56.474Z,29.20
2023-08-15T18:16:23.087Z,29.18
2023-08-15T18:18:49.942Z,29.12
2023-08-15T18:21:16.383Z,29.06
2023-08-15T18:23:43.832Z,29.03
2023-08-15T18:26:10.884Z,29.00
2023-08-15T18:28:37.457Z,28.94
2023-08-15T18:31:03.954Z,28.89
2023-08-15T18:33:30.404Z,28.87
2023-08-15T18:35:57.836Z,28.87
2023-08-15T18:38:24.367Z,28.86
2023-08-15T18:40:50.816Z,28.83
2023-08-15T18:43:17.256Z,28.80
2023-08-15T18:45:44.975Z,28.78
2023-08-15T18:48:15.690Z,28.75
2023-08-15T18:50:43.213Z,28.73
2023-08-15T18:53:09.853Z,28.72
2023-08-15T18:55:36.589Z,28.71
2023-08-15T18:58:03.471Z,28.68
2023-08-15T19:00:30.087Z,28.64
2023-08-15T19:02:56.682Z,28.55
2023-08-15T19:05:23.267Z,28.51
2023-08-15T19:07:49.708Z,28.47
2023-08-15T19:10:16.214Z,28.41
2023-08-15T19:12:42.647Z,28.38
2023-08-15T19:15:20.449Z,28.35
2023-08-15T19:17:49.744Z,28.29
2023-08-15T19:20:17.406Z,28.22
2023-08-15T19:22:43.882Z,28.16
2023-08-15T19:25:10.610Z,28.06
2023-08-15T19:27:37.104Z,27.96
2023-08-15T19:30:03.973Z,27.86
2023-08-15T19:32:30.720Z,27.82
2023-08-15T19:34:57.172Z,27.65
2023-08-15T19:37:36.277Z,27.56
2023-08-15T19:40:09.766Z,27.38
2023-08-15T19:42:42.200Z,27.20
2023-08-15T19:45:09.692Z,26.97
2023-08-15T19:47:36.174Z,26.76
2023-08-15T19:50:05.145Z,26.67
2023-08-15T19:52:32.700Z,26.58
2023-08-15T19:54:59.744Z,26.51
2023-08-15T19:57:26.222Z,26.36
2023-08-15T19:59:52.684Z,26.27
2023-08-15T20:02:20.446Z,26.25
2023-08-15T20:04:47.498Z,26.20
2023-08-15T20:07:14.190Z,26.20
2023-08-15T20:09:42.997Z,26.14
2023-08-15T20:12:15.594Z,26.05
2023-08-15T20:14:42.106Z,26.01
2023-08-15T20:17:08.603Z,25.91
2023-08-15T20:19:35.134Z,25.86
2023-08-15T20:22:01.639Z,25.82
2023-08-15T20:24:28.236Z,25.77
2023-08-15T20:26:54.699Z,25.75
2023-08-15T20:29:21.128Z,25.74
2023-08-15T20:31:47.548Z,25.76
2023-08-15T20:34:14.015Z,25.74
2023-08-15T20:36:40.464Z,25.75
2023-08-15T20:39:06.888Z,25.70
2023-08-15T20:41:33.341Z,25.65
2023-08-15T20:44:00.171Z,25.67
2023-08-15T20:46:40.365Z,25.69
2023-08-15T20:49:07.344Z,25.69
2023-08-15T20:51:33.853Z,25.64
2023-08-15T20:54:00.299Z,25.58
2023-08-15T20:56:29.904Z,25.53
2023-08-15T20:58:56.533Z,25.47
2023-08-15T21:01:23.691Z,25.39
2023-08-15T21:03:50.764Z,25.33
2023-08-15T21:06:17.236Z,25.31
2023-08-15T21:08:43.659Z,25.28
2023-08-15T21:11:10.092Z,25.29
2023-08-15T21:13:36.724Z,25.29
2023-08-15T21:16:03.179Z,25.24
2023-08-15T21:18:29.654Z,25.23
2023-08-15T21:20:56.108Z,25.19
2023-08-15T21:23:22.558Z,25.18
2023-08-15T21:25:49.056Z,25.18
2023-08-15T21:28:17.108Z,25.14
2023-08-15T21:30:43.948Z,25.10
2023-08-15T21:33:10.612Z,25.07
2023-08-15T21:35:37.226Z,25.02
2023-08-15T21:38:03.748Z,24.96
2023-08-15T21:40:30.183Z,24.92
2023-08-15T21:42:56.636Z,24.94
2023-08-15T21:45:23.105Z,24.98
2023-08-15T21:47:49.586Z,24.99
2023-08-15T21:50:16.043Z,25.00
2023-08-15T21:52:42.484Z,25.00
2023-08-15T21:55:09.328Z,24.95
2023-08-15T21:57:35.782Z,24.96
2023-08-15T22:00:02.401Z,24.93
2023-08-15T22:02:39.153Z,24.87
2023-08-15T22:05:05.708Z,24.86
2023-08-15T22:07:32.235Z,24.90
2023-08-15T22:09:58.703Z,24.91
2023-08-15T22:12:25.245Z,24.93
2023-08-15T22:14:51.678Z,24.95
2023-08-15T22:17:20.996Z,24.97
2023-08-15T22:19:51.780Z,24.95
2023-08-15T22:22:18.233Z,24.92
2023-08-15T22:24:51.026Z,24.86
2023-08-15T22:27:24.069Z,24.83
2023-08-15T22:29:50.763Z,24.80
2023-08-15T22:32:17.185Z,24.73
2023-08-15T22:34:43.652Z,24.65
2023-08-15T22:37:10.186Z,24.60
2023-08-15T22:39:36.658Z,24.55
2023-08-15T22:42:03.141Z,24.54
2023-08-15T22:44:29.654Z,24.48
2023-08-15T22:46:56.152Z,24.46
2023-08-15T22:49:22.649Z,24.44
2023-08-15T22:51:49.099Z,24.42
2023-08-15T22:54:15.547Z,24.39
2023-08-15T22:56:42.000Z,24.34
2023-08-15T22:59:08.465Z,24.29
2023-08-15T23:01:34.974Z,24.25
2023-08-15T23:04:01.534Z,24.21
2023-08-15T23:06:28.021Z,24.24
2023-08-15T23:08:54.470Z,24.30
2023-08-15T23:11:20.916Z,24.34
2023-08-15T23:13:47.354Z,24.34
2023-08-15T23:16:13.871Z,24.30
2023-08-15T23:18:40.445Z,24.29
2023-08-15T23:21:07.391Z,24.27
2023-08-15T23:23:34.170Z,24.30
2023-08-15T23:26:00.691Z,24.31
2023-08-15T23:28:27.194Z,24.31
2023-08-15T23:30:53.706Z,24.33
2023-08-15T23:33:20.178Z,24.30
2023-08-15T23:35:46.670Z,24.31
2023-08-15T23:38:13.122Z,24.35
2023-08-15T23:40:39.614Z,24.37
2023-08-15T23:43:06.059Z,24.42
2023-08-15T23:45:32.959Z,24.40
2023-08-15T23:47:59.471Z,24.42
2023-08-15T23:50:26.001Z,24.43
2023-08-15T23:52:52.501Z,24.36
2023-08-15T23:55:18.952Z,24.30
2023-08-15T23:57:45.509Z,24.22
